createdAt,value
2023-03-18T00:03:40.852Z,11.93
2023-03-18T00:11:47.274Z,11.98
2023-03-18T00:19:55.370Z,10.50
2023-03-18T00:28:00.809Z,9.52
2023-03-18T00:36:10.409Z,9.23
2023-03-18T00:44:15.910Z,8.15
2023-03-18T00:52:23.985Z,9.55
2023-03-18T01:00:30.178Z,8.27
2023-03-18T01:08:38.756Z,8.18
2023-03-18T01:16:44.927Z,10.93
2023-03-18T01:24:53.069Z,9.73
2023-03-18T01:33:07.365Z,11.05
2023-03-18T01:41:17.374Z,9.65
2023-03-18T01:49:27.673Z,11.07
2023-03-18T01:57:37.985Z,10.82
2023-03-18T02:05:45.214Z,9.07
2023-03-18T02:13:53.816Z,9.07
2023-03-18T02:22:08.867Z,7.63
2023-03-18T02:30:21.623Z,12.07
2023-03-18T02:38:29.462Z,10.52
2023-03-18T02:46:47.837Z,8.75
2023-03-18T02:54:58.568Z,8.07
2023-03-18T03:03:10.036Z,8.80
2023-03-18T03:11:16.585Z,9.38
2023-03-18T03:19:27.015Z,9.35
2023-03-18T03:27:34.136Z,9.52
2023-03-18T03:35:42.553Z,9.88
2023-03-18T03:43:47.971Z,10.07
2023-03-18T03:51:56.843Z,9.25
2023-03-18T04:00:02.488Z,8.80
2023-03-18T04:08:24.348Z,8.60
2023-03-18T04:16:30.320Z,8.68
2023-03-18T04:24:39.368Z,9.30
2023-03-18T04:32:45.247Z,9.23
2023-03-18T04:40:53.470Z,10.07
2023-03-18T04:48:59.133Z,10.02
2023-03-18T04:57:07.800Z,10.38
2023-03-18T05:05:18.712Z,9.93
2023-03-18T05:13:30.788Z,11.00
2023-03-18T05:21:36.768Z,11.30
2023-03-18T05:29:45.850Z,12.07
2023-03-18T05:37:55.725Z,10.77
2023-03-18T05:46:04.431Z,10.77
2023-03-18T05:54:21.096Z,9.35
2023-03-18T06:02:29.909Z,9.45
2023-03-18T06:10:35.366Z,8.65
2023-03-18T06:18:43.905Z,7.90
2023-03-18T06:26:52.658Z,7.03
2023-03-18T06:35:01.650Z,7.15
2023-03-18T06:43:09.076Z,7.32
2023-03-18T06:51:19.073Z,6.63
2023-03-18T06:59:24.734Z,7.43
2023-03-18T07:07:33.219Z,6.55
2023-03-18T07:15:39.245Z,6.20
2023-03-18T07:23:47.914Z,6.03
2023-03-18T07:31:53.496Z,5.93
2023-03-18T07:40:01.585Z,6.13
2023-03-18T07:48:07.775Z,5.82
2023-03-18T07:56:17.372Z,5.90
2023-03-18T08:04:23.055Z,4.93
2023-03-18T08:12:49.056Z,4.22
2023-03-18T08:20:58.506Z,3.80
2023-03-18T08:29:06.766Z,3.13
2023-03-18T08:37:13.153Z,3.20
2023-03-18T08:45:21.540Z,2.65
2023-03-18T08:53:29.865Z,2.35
2023-03-18T09:01:37.942Z,2.50
2023-03-18T09:09:44.424Z,2.67
2023-03-18T09:18:09.959Z,2.50
2023-03-18T09:26:16.321Z,2.30
2023-03-18T09:34:24.312Z,2.30
2023-03-18T09:42:48.673Z,2.13
2023-03-18T09:51:07.159Z,2.28
2023-03-18T09:59:21.937Z,2.17
2023-03-18T10:07:36.793Z,2.15
2023-03-18T10:15:52.383Z,2.70
2023-03-18T10:24:09.901Z,3.28
2023-03-18T10:32:46.444Z,2.83
2023-03-18T10:40:58.445Z,2.42
2023-03-18T10:49:09.386Z,2.67
2023-03-18T10:57:19.214Z,2.93
2023-03-18T11:05:28.494Z,2.30
2023-03-18T11:13:37.591Z,2.67
2023-03-18T11:21:43.649Z,2.50
2023-03-18T11:29:57.274Z,2.30
2023-03-18T11:38:07.941Z,2.50
2023-03-18T11:46:17.570Z,2.67
2023-03-18T11:54:40.596Z,2.40
2023-03-18T12:03:09.880Z,2.85
2023-03-18T12:11:22.291Z,2.50
2023-03-18T12:20:00.181Z,2.75
2023-03-18T12:28:11.117Z,2.47
2023-03-18T12:36:28.196Z,2.50
2023-03-18T12:45:01.158Z,2.70
2023-03-18T12:53:17.183Z,2.20
2023-03-18T13:01:28.324Z,2.50
2023-03-18T13:09:43.874Z,2.40
2023-03-18T13:17:52.409Z,2.78
2023-03-18T13:26:11.976Z,2.60
2023-03-18T13:34:40.709Z,2.53
2023-03-18T13:42:52.064Z,2.72
2023-03-18T13:50:58.026Z,2.50
2023-03-18T13:59:09.081Z,2.60
2023-03-18T14:07:20.084Z,3.08
2023-03-18T14:15:45.423Z,3.10
2023-03-18T14:24:07.957Z,3.20
2023-03-18T14:32:42.511Z,2.75
2023-03-18T14:40:51.666Z,3.22
2023-03-18T14:48:59.769Z,3.22
2023-03-18T14:57:07.146Z,3.33
2023-03-18T15:05:19.405Z,3.00
2023-03-18T15:13:27.183Z,3.67
2023-03-18T15:21:38.538Z,3.00
2023-03-18T15:29:48.834Z,3.53
2023-03-18T15:38:16.324Z,5.13
2023-03-18T15:46:27.386Z,4.25
2023-03-18T15:54:44.309Z,4.43
2023-03-18T16:02:50.560Z,4.45
2023-03-18T16:11:01.060Z,5.22
2023-03-18T16:19:07.565Z,6.28
2023-03-18T16:27:31.402Z,7.35
2023-03-18T16:43:49.317Z,9.77
2023-03-18T16:51:55.601Z,9.38
2023-03-18T17:00:05.996Z,6.28
2023-03-18T17:08:12.953Z,5.85
2023-03-18T17:16:23.028Z,6.53
2023-03-18T17:24:28.564Z,7.10
2023-03-18T17:32:36.504Z,6.55
2023-03-18T17:40:42.821Z,6.72
2023-03-18T17:49:14.812Z,7.95
2023-03-18T18:05:40.137Z,12.38
2023-03-18T18:13:47.322Z,13.98
2023-03-18T18:21:56.041Z,14.85
2023-03-18T18:30:01.692Z,17.90
2023-03-18T18:38:10.000Z,15.95
2023-03-18T18:46:18.155Z,12.68
2023-03-18T18:54:28.575Z,13.82
2023-03-18T19:02:36.540Z,11.68
2023-03-18T19:10:44.620Z,11.57
2023-03-18T19:18:50.971Z,10.45
2023-03-18T19:27:00.424Z,10.13
2023-03-18T19:35:06.122Z,10.18
2023-03-18T19:43:19.434Z,10.13
2023-03-18T19:51:25.618Z,10.40
2023-03-18T19:59:39.152Z,13.07
2023-03-18T20:07:46.587Z,12.40
2023-03-18T20:15:57.662Z,11.52
2023-03-18T20:24:10.317Z,11.38
2023-03-18T20:32:18.264Z,9.90
2023-03-18T20:40:27.515Z,9.63
2023-03-18T20:48:38.219Z,9.88
2023-03-18T20:56:44.546Z,11.38
2023-03-18T21:04:52.591Z,12.52
2023-03-18T21:12:57.978Z,15.40
2023-03-18T21:21:06.231Z,17.30
2023-03-18T21:29:19.774Z,15.65
2023-03-18T21:37:29.422Z,14.95
2023-03-18T21:45:38.937Z,18.00
2023-03-18T21:53:48.709Z,15.77
2023-03-18T22:01:54.142Z,16.77
2023-03-18T22:10:03.084Z,15.20
2023-03-18T22:18:09.055Z,15.65
2023-03-18T22:26:20.335Z,15.43
2023-03-18T22:34:30.806Z,14.90
2023-03-18T22:42:38.669Z,14.40
2023-03-18T22:50:44.068Z,17.20
2023-03-18T22:58:52.232Z,18.10
2023-03-18T23:06:57.797Z,16.45
2023-03-18T23:15:05.909Z,15.15
2023-03-18T23:23:11.301Z,16.55
2023-03-18T23:31:19.508Z,14.10
2023-03-18T23:39:25.040Z,14.32
2023-03-18T23:47:33.211Z,13.32
2023-03-18T23:55:38.752Z,14.02
